createdAt,value
2018-12-14T00:01:31.364Z,27.57
2018-12-14T00:03:59.767Z,25.33
2018-12-14T00:06:28.179Z,29.57
2018-12-14T00:08:56.731Z,29.33
2018-12-14T00:11:25.140Z,28.03
2018-12-14T00:14:00.317Z,31.53
2018-12-14T00:16:28.745Z,32.03
2018-12-14T00:18:57.151Z,29.43
2018-12-14T00:21:25.536Z,27.07
2018-12-14T00:23:53.969Z,29.87
2018-12-14T00:26:22.365Z,28.37
2018-12-14T00:28:50.774Z,27.57
2018-12-14T00:31:19.190Z,26.60
2018-12-14T00:33:47.596Z,30.10
2018-12-14T00:36:16.127Z,27.70
2018-12-14T00:38:44.605Z,29.27
2018-12-14T00:41:13.020Z,24.23
2018-12-14T00:43:41.552Z,27.17
2018-12-14T00:46:09.964Z,28.60
2018-12-14T00:48:38.372Z,27.23
2018-12-14T00:51:06.772Z,27.33
2018-12-14T00:53:35.139Z,28.27
2018-12-14T00:56:03.566Z,28.30
2018-12-14T00:58:31.960Z,28.33
2018-12-14T01:01:00.376Z,29.73
2018-12-14T01:03:28.800Z,26.47
2018-12-14T01:05:57.180Z,24.63
2018-12-14T01:08:25.612Z,24.90
2018-12-14T01:10:54.012Z,29.43
2018-12-14T01:13:22.458Z,28.30
2018-12-14T01:15:50.856Z,28.63
2018-12-14T01:18:19.275Z,26.37
2018-12-14T01:20:47.688Z,28.60
2018-12-14T01:23:16.117Z,24.93
2018-12-14T01:25:44.648Z,26.80
2018-12-14T01:28:13.074Z,25.10
2018-12-14T01:30:41.488Z,27.30
2018-12-14T01:33:09.922Z,25.07
2018-12-14T01:35:38.340Z,26.90
2018-12-14T01:38:06.748Z,22.50
2018-12-14T01:40:35.178Z,27.53
2018-12-14T01:43:03.664Z,25.90
2018-12-14T01:45:32.074Z,25.23
2018-12-14T01:48:00.480Z,25.17
2018-12-14T01:50:28.878Z,28.10
2018-12-14T01:52:57.296Z,25.23
2018-12-14T01:55:25.950Z,23.77
2018-12-14T01:57:54.468Z,24.77
2018-12-14T02:00:22.848Z,22.77
2018-12-14T02:02:51.236Z,23.90
2018-12-14T02:05:19.742Z,23.03
2018-12-14T02:07:48.175Z,24.33
2018-12-14T02:10:16.673Z,24.57
2018-12-14T02:12:45.060Z,22.23
2018-12-14T02:15:13.544Z,21.80
2018-12-14T02:17:41.940Z,24.50
2018-12-14T02:20:10.360Z,25.20
2018-12-14T02:22:38.780Z,23.70
2018-12-14T02:25:07.404Z,24.43
2018-12-14T02:27:35.946Z,21.73
2018-12-14T02:30:15.625Z,22.70
2018-12-14T02:32:44.023Z,23.87
2018-12-14T02:35:12.561Z,22.17
2018-12-14T02:37:40.959Z,24.63
2018-12-14T02:40:09.375Z,22.87
2018-12-14T02:42:37.796Z,24.13
2018-12-14T02:45:06.546Z,21.27
2018-12-14T02:47:34.971Z,21.80
2018-12-14T02:50:03.716Z,23.17
2018-12-14T02:52:32.135Z,21.53
2018-12-14T02:55:00.514Z,22.63
2018-12-14T02:57:28.952Z,23.17
2018-12-14T02:59:57.339Z,22.97
2018-12-14T03:02:25.733Z,24.23
2018-12-14T03:04:54.133Z,20.30
2018-12-14T03:07:22.639Z,22.40
2018-12-14T03:09:51.068Z,21.97
2018-12-14T03:12:26.520Z,25.97
2018-12-14T03:14:49.862Z,19.63
2018-12-14T03:17:18.831Z,23.07
2018-12-14T03:19:47.717Z,22.20
2018-12-14T03:22:16.447Z,21.30
2018-12-14T03:24:44.863Z,19.23
2018-12-14T03:27:13.287Z,26.20
2018-12-14T03:29:41.685Z,24.17
2018-12-14T03:32:10.118Z,22.97
2018-12-14T03:34:38.635Z,22.33
2018-12-14T03:37:07.056Z,23.10
2018-12-14T03:39:35.459Z,22.10
2018-12-14T03:42:04.202Z,20.33
2018-12-14T03:44:32.628Z,22.80
2018-12-14T03:47:01.058Z,19.47
2018-12-14T03:49:29.458Z,20.00
2018-12-14T03:51:57.862Z,22.80
2018-12-14T03:54:26.284Z,20.13
2018-12-14T03:56:54.709Z,19.27
2018-12-14T03:59:23.110Z,18.30
2018-12-14T04:01:51.519Z,21.27
2018-12-14T04:04:20.037Z,19.33
2018-12-14T04:06:48.432Z,18.67
2018-12-14T04:09:16.848Z,23.60
2018-12-14T04:11:45.245Z,19.63
2018-12-14T04:14:13.668Z,20.27
2018-12-14T04:16:42.055Z,21.37
2018-12-14T04:19:10.486Z,19.10
2018-12-14T04:21:39.035Z,21.20
2018-12-14T04:24:07.670Z,21.17
2018-12-14T04:26:36.083Z,20.80
2018-12-14T04:29:04.517Z,23.07
2018-12-14T04:31:32.947Z,19.33
2018-12-14T04:34:01.344Z,20.03
2018-12-14T04:36:29.767Z,18.93
2018-12-14T04:38:58.173Z,22.20
2018-12-14T04:41:26.591Z,21.53
2018-12-14T04:43:54.997Z,18.60
2018-12-14T04:46:23.477Z,20.07
2018-12-14T04:48:51.903Z,22.07
2018-12-14T04:51:20.312Z,17.53
2018-12-14T04:53:48.706Z,20.13
2018-12-14T04:56:17.146Z,19.23
2018-12-14T04:58:45.684Z,19.30
2018-12-14T05:01:14.095Z,18.53
2018-12-14T05:03:42.521Z,19.13
2018-12-14T05:06:10.928Z,18.43
2018-12-14T05:08:39.335Z,20.50
2018-12-14T05:11:07.743Z,20.07
2018-12-14T05:13:36.150Z,18.93
2018-12-14T05:16:04.545Z,21.60
2018-12-14T05:18:32.977Z,20.37
2018-12-14T05:21:01.505Z,20.50
2018-12-14T05:23:29.920Z,20.63
2018-12-14T05:25:58.333Z,24.17
2018-12-14T05:28:26.747Z,20.70
2018-12-14T05:30:55.167Z,20.03
2018-12-14T05:33:23.606Z,20.37
2018-12-14T05:35:52.055Z,21.80
2018-12-14T05:38:20.471Z,20.53
2018-12-14T05:40:48.888Z,20.53
2018-12-14T05:43:17.292Z,23.60
2018-12-14T05:45:45.705Z,21.87
2018-12-14T05:48:14.129Z,21.67
2018-12-14T05:50:42.531Z,21.23
2018-12-14T05:53:10.948Z,22.40
2018-12-14T05:55:39.398Z,20.53
2018-12-14T05:58:07.810Z,21.43
2018-12-14T06:00:36.407Z,19.93
2018-12-14T06:03:04.850Z,19.43
2018-12-14T06:05:33.250Z,20.03
2018-12-14T06:08:01.648Z,20.03
2018-12-14T06:10:30.058Z,19.37
2018-12-14T06:12:58.514Z,20.43
2018-12-14T06:15:26.918Z,19.63
2018-12-14T06:17:55.333Z,20.53
2018-12-14T06:20:23.734Z,18.70
2018-12-14T06:22:52.154Z,21.30
2018-12-14T06:25:20.542Z,19.97
2018-12-14T06:27:48.949Z,20.97
2018-12-14T06:30:17.374Z,21.97
2018-12-14T06:32:45.768Z,22.30
2018-12-14T06:35:14.301Z,19.07
2018-12-14T06:37:42.696Z,23.27
2018-12-14T06:40:11.119Z,20.43
2018-12-14T06:42:39.534Z,21.10
2018-12-14T06:45:08.484Z,21.80
2018-12-14T06:47:36.891Z,20.20
2018-12-14T06:50:05.448Z,20.00
2018-12-14T06:52:33.928Z,21.07
2018-12-14T06:55:02.345Z,23.10
2018-12-14T06:57:30.770Z,20.63
2018-12-14T06:59:59.188Z,22.77
2018-12-14T07:02:27.615Z,22.87
2018-12-14T07:04:56.040Z,22.63
2018-12-14T07:07:24.443Z,23.33
2018-12-14T07:09:52.838Z,23.67
2018-12-14T07:12:21.280Z,22.93
2018-12-14T07:14:49.788Z,24.57
2018-12-14T07:17:18.201Z,23.60
2018-12-14T07:19:46.597Z,24.23
2018-12-14T07:22:15.028Z,21.93
2018-12-14T07:24:43.445Z,21.13
2018-12-14T07:27:11.884Z,22.63
2018-12-14T07:29:40.310Z,24.23
2018-12-14T07:32:08.700Z,22.93
2018-12-14T07:34:37.160Z,20.20
2018-12-14T07:37:05.586Z,24.30
2018-12-14T07:39:33.994Z,20.23
2018-12-14T07:42:02.408Z,20.47
2018-12-14T07:44:30.888Z,25.23
2018-12-14T07:46:59.541Z,24.77
2018-12-14T07:49:28.049Z,24.87
2018-12-14T07:51:56.656Z,21.70
2018-12-14T07:54:31.586Z,21.63
2018-12-14T07:56:59.999Z,22.17
2018-12-14T07:59:28.430Z,21.33
2018-12-14T08:01:56.955Z,23.30
2018-12-14T08:04:25.569Z,26.43
2018-12-14T08:06:54.595Z,39.17
2018-12-14T08:09:23.045Z,23.80
2018-12-14T08:11:51.441Z,31.47
2018-12-14T08:14:19.858Z,28.83
2018-12-14T08:16:48.250Z,21.73
2018-12-14T08:19:16.695Z,22.10
2018-12-14T08:21:45.453Z,22.20
2018-12-14T08:24:13.867Z,22.33
2018-12-14T08:26:42.305Z,21.17
2018-12-14T08:29:10.727Z,22.93
2018-12-14T08:31:39.153Z,21.30
2018-12-14T08:34:07.551Z,22.40
2018-12-14T08:36:35.983Z,19.80
2018-12-14T08:39:06.798Z,20.90
2018-12-14T08:41:35.219Z,19.87
2018-12-14T08:44:04.176Z,19.83
2018-12-14T08:46:32.588Z,21.43
2018-12-14T08:49:01.013Z,25.57
2018-12-14T08:51:29.429Z,23.17
2018-12-14T08:53:57.877Z,22.73
2018-12-14T08:56:26.685Z,19.50
2018-12-14T08:58:55.141Z,20.80
2018-12-14T09:01:23.531Z,23.37
2018-12-14T09:03:51.964Z,22.90
2018-12-14T09:06:20.356Z,20.40
2018-12-14T09:08:55.545Z,21.10
2018-12-14T09:11:23.971Z,23.00
2018-12-14T09:13:52.405Z,20.97
2018-12-14T09:16:20.794Z,20.87
2018-12-14T09:18:49.240Z,20.57
2018-12-14T09:21:17.647Z,22.50
2018-12-14T09:23:46.044Z,22.77
2018-12-14T09:26:14.588Z,20.27
2018-12-14T09:28:43.308Z,18.63
2018-12-14T09:31:11.729Z,19.90
2018-12-14T09:33:40.105Z,22.10
2018-12-14T09:36:08.534Z,19.70
2018-12-14T09:38:36.928Z,21.80
2018-12-14T09:41:05.495Z,18.40
2018-12-14T09:43:33.892Z,20.43
2018-12-14T09:46:02.306Z,20.57
2018-12-14T09:48:30.706Z,23.70
2018-12-14T09:50:59.202Z,21.77
2018-12-14T09:53:27.682Z,19.53
2018-12-14T09:55:56.138Z,22.10
2018-12-14T09:58:24.561Z,18.73
2018-12-14T10:00:52.996Z,20.10
2018-12-14T10:03:21.390Z,21.63
2018-12-14T10:05:49.806Z,20.07
2018-12-14T10:08:18.528Z,18.13
2018-12-14T10:10:47.231Z,21.50
2018-12-14T10:13:15.987Z,20.73
2018-12-14T10:15:44.450Z,20.17
2018-12-14T10:18:12.883Z,19.97
2018-12-14T10:20:41.304Z,20.73
2018-12-14T10:23:09.765Z,20.73
2018-12-14T10:25:38.176Z,21.07
2018-12-14T10:28:06.588Z,23.30
2018-12-14T10:30:35.058Z,20.00
2018-12-14T10:33:03.452Z,18.07
2018-12-14T10:35:31.936Z,20.53
2018-12-14T10:38:00.379Z,21.70
2018-12-14T10:40:28.801Z,21.03
2018-12-14T10:42:57.235Z,23.23
2018-12-14T10:45:27.176Z,22.30
2018-12-14T10:47:55.629Z,25.30
2018-12-14T10:50:24.062Z,20.37
2018-12-14T10:52:52.510Z,20.63
2018-12-14T10:55:21.102Z,18.70
2018-12-14T10:57:49.847Z,21.50
2018-12-14T11:00:23.790Z,23.93
2018-12-14T11:02:52.200Z,21.27
2018-12-14T11:05:20.602Z,26.00
2018-12-14T11:07:49.057Z,22.17
2018-12-14T11:10:17.607Z,21.07
2018-12-14T11:12:46.032Z,21.03
2018-12-14T11:15:14.456Z,21.07
2018-12-14T11:17:42.982Z,23.63
2018-12-14T11:20:11.376Z,21.33
2018-12-14T11:22:39.798Z,22.93
2018-12-14T11:25:09.044Z,21.03
2018-12-14T11:27:37.660Z,24.20
2018-12-14T11:30:08.056Z,22.70
2018-12-14T11:32:36.464Z,21.97
2018-12-14T11:35:05.152Z,19.93
2018-12-14T11:37:33.570Z,22.10
2018-12-14T11:40:02.212Z,20.50
2018-12-14T11:42:30.593Z,22.23
2018-12-14T11:44:59.002Z,24.60
2018-12-14T11:47:28.141Z,21.30
2018-12-14T11:49:56.757Z,23.13
2018-12-14T11:52:25.341Z,19.97
2018-12-14T11:54:53.775Z,20.57
2018-12-14T11:57:22.178Z,20.87
2018-12-14T11:59:50.639Z,20.63
2018-12-14T12:02:19.043Z,19.73
2018-12-14T12:04:47.548Z,20.00
2018-12-14T12:07:15.975Z,20.50
2018-12-14T12:09:44.371Z,20.60
2018-12-14T12:12:12.801Z,18.67
2018-12-14T12:14:41.195Z,19.10
2018-12-14T12:17:09.624Z,20.43
2018-12-14T12:19:38.027Z,19.27
2018-12-14T12:22:06.433Z,19.97
2018-12-14T12:24:34.839Z,19.37
2018-12-14T12:27:03.377Z,18.73
2018-12-14T12:29:31.829Z,22.23
2018-12-14T12:32:00.263Z,18.37
2018-12-14T12:34:28.691Z,20.27
2018-12-14T12:36:57.103Z,20.00
2018-12-14T12:39:25.555Z,19.07
2018-12-14T12:41:53.985Z,24.27
2018-12-14T12:44:22.401Z,18.83
2018-12-14T12:46:50.851Z,20.57
2018-12-14T12:49:19.268Z,19.00
2018-12-14T12:51:48.092Z,18.97
2018-12-14T12:54:16.534Z,21.30
2018-12-14T12:56:45.107Z,20.37
2018-12-14T12:59:13.603Z,23.07
2018-12-14T13:01:42.036Z,20.20
2018-12-14T13:04:10.469Z,21.00
2018-12-14T13:06:39.211Z,20.77
2018-12-14T13:09:07.602Z,18.60
2018-12-14T13:11:36.117Z,27.07
2018-12-14T13:14:04.589Z,17.60
2018-12-14T13:16:33.003Z,17.30
2018-12-14T13:19:01.491Z,20.13
2018-12-14T13:21:29.914Z,19.47
2018-12-14T13:23:58.341Z,19.13
2018-12-14T13:26:26.751Z,18.40
2018-12-14T13:28:55.313Z,19.60
2018-12-14T13:31:23.753Z,19.27
2018-12-14T13:33:52.342Z,21.27
2018-12-14T13:36:20.781Z,19.10
2018-12-14T13:38:49.443Z,20.07
2018-12-14T13:41:17.967Z,23.67
2018-12-14T13:43:46.433Z,17.50
2018-12-14T13:46:14.962Z,22.43
2018-12-14T13:48:43.479Z,20.00
2018-12-14T13:51:11.921Z,18.37
2018-12-14T13:53:40.341Z,21.27
2018-12-14T13:56:08.763Z,21.20
2018-12-14T13:58:37.273Z,22.90
2018-12-14T14:01:05.709Z,21.03
2018-12-14T14:03:34.129Z,21.53
2018-12-14T14:06:02.543Z,21.87
2018-12-14T14:08:30.945Z,21.97
2018-12-14T14:10:59.476Z,23.40
2018-12-14T14:13:27.897Z,22.57
2018-12-14T14:15:56.307Z,21.60
2018-12-14T14:18:24.719Z,23.83
2018-12-14T14:20:53.164Z,20.53
2018-12-14T14:23:21.579Z,21.20
2018-12-14T14:25:50.087Z,22.63
2018-12-14T14:28:18.499Z,20.80
2018-12-14T14:30:46.937Z,18.10
2018-12-14T14:33:15.356Z,18.43
2018-12-14T14:35:43.809Z,19.97
2018-12-14T14:38:12.496Z,22.67
2018-12-14T14:40:40.942Z,19.43
2018-12-14T14:43:09.380Z,21.33
2018-12-14T14:45:37.793Z,20.57
2018-12-14T14:48:06.267Z,18.87
2018-12-14T14:50:34.771Z,21.23
2018-12-14T14:53:03.282Z,18.43
2018-12-14T14:55:31.736Z,17.57
2018-12-14T14:58:00.342Z,20.83
2018-12-14T15:00:30.820Z,17.63
2018-12-14T15:02:59.523Z,19.27
2018-12-14T15:05:27.985Z,19.03
2018-12-14T15:07:56.533Z,19.67
2018-12-14T15:10:24.952Z,19.97
2018-12-14T15:12:53.420Z,18.77
2018-12-14T15:15:21.876Z,19.13
2018-12-14T15:17:50.329Z,22.10
2018-12-14T15:20:18.784Z,17.90
2018-12-14T15:22:47.240Z,19.07
2018-12-14T15:25:15.801Z,20.00
2018-12-14T15:27:44.226Z,21.10
2018-12-14T15:30:12.695Z,19.93
2018-12-14T15:32:41.218Z,22.17
2018-12-14T15:35:09.699Z,19.97
2018-12-14T15:37:38.155Z,19.97
2018-12-14T15:40:08.790Z,18.10
2018-12-14T15:42:37.228Z,19.70
2018-12-14T15:45:12.968Z,19.80
2018-12-14T15:47:36.817Z,19.10
2018-12-14T15:50:06.037Z,19.97
2018-12-14T15:52:34.465Z,20.23
2018-12-14T15:55:02.980Z,19.30
2018-12-14T15:57:31.427Z,19.93
2018-12-14T15:59:59.907Z,17.47
2018-12-14T16:02:28.532Z,20.90
2018-12-14T16:04:57.104Z,21.23
2018-12-14T16:07:25.700Z,21.57
2018-12-14T16:09:54.180Z,23.87
2018-12-14T16:12:22.633Z,22.60
2018-12-14T16:14:51.097Z,20.33
2018-12-14T16:17:19.969Z,21.20
2018-12-14T16:19:48.574Z,18.80
2018-12-14T16:22:18.541Z,21.93
2018-12-14T16:24:47.120Z,22.60
2018-12-14T16:27:15.701Z,21.80
2018-12-14T16:29:44.981Z,18.10
2018-12-14T16:32:13.441Z,17.57
2018-12-14T16:34:41.933Z,18.70
2018-12-14T16:37:10.509Z,18.87
2018-12-14T16:39:39.071Z,19.57
2018-12-14T16:42:07.551Z,18.70
2018-12-14T16:44:36.309Z,18.77
2018-12-14T16:47:04.925Z,19.10
2018-12-14T16:49:33.488Z,20.33
2018-12-14T16:52:02.020Z,18.77
2018-12-14T16:54:30.642Z,21.07
2018-12-14T16:56:59.215Z,19.20
2018-12-14T16:59:27.797Z,21.07
2018-12-14T17:01:57.224Z,20.87
2018-12-14T17:04:25.693Z,19.27
2018-12-14T17:06:54.152Z,18.87
2018-12-14T17:09:23.401Z,20.43
2018-12-14T17:11:54.874Z,21.93
2018-12-14T17:14:23.324Z,31.40
2018-12-14T17:16:51.842Z,21.40
2018-12-14T17:19:20.412Z,19.20
2018-12-14T17:21:49.023Z,20.33
2018-12-14T17:24:17.648Z,20.10
2018-12-14T17:26:46.902Z,18.53
2018-12-14T17:29:15.380Z,18.47
2018-12-14T17:31:43.975Z,21.87
2018-12-14T17:34:12.483Z,18.73
2018-12-14T17:36:41.057Z,19.50
2018-12-14T17:39:09.832Z,21.20
2018-12-14T17:41:38.611Z,22.40
2018-12-14T17:44:07.094Z,22.50
2018-12-14T17:46:35.875Z,24.07
2018-12-14T17:49:04.459Z,23.27
2018-12-14T17:51:33.474Z,23.10
2018-12-14T17:54:01.979Z,24.43
2018-12-14T17:56:30.471Z,25.80
2018-12-14T17:58:58.989Z,23.37
2018-12-14T18:01:27.455Z,23.60
2018-12-14T18:03:57.083Z,24.27
2018-12-14T18:06:27.179Z,30.03
2018-12-14T18:08:55.760Z,28.00
2018-12-14T18:11:24.745Z,33.73
2018-12-14T18:13:53.341Z,30.03
2018-12-14T18:16:22.245Z,28.80
2018-12-14T18:18:51.661Z,28.67
2018-12-14T18:21:20.176Z,26.50
2018-12-14T18:23:48.835Z,24.30
2018-12-14T18:26:17.775Z,26.53
2018-12-14T18:28:46.273Z,30.93
2018-12-14T18:31:14.875Z,28.53
2018-12-14T18:33:43.343Z,23.60
2018-12-14T18:36:11.937Z,25.23
2018-12-14T18:38:40.639Z,27.43
2018-12-14T18:41:09.175Z,25.10
2018-12-14T18:43:39.422Z,27.20
2018-12-14T18:46:08.018Z,27.77
2018-12-14T18:48:37.206Z,25.10
2018-12-14T18:51:06.605Z,25.53
2018-12-14T18:53:35.237Z,25.83
2018-12-14T18:56:03.966Z,25.40
2018-12-14T18:58:33.401Z,29.43
2018-12-14T19:01:02.388Z,30.53
2018-12-14T19:03:30.958Z,29.80
2018-12-14T19:05:59.486Z,29.40
2018-12-14T19:08:28.128Z,27.33
2018-12-14T19:10:56.639Z,30.73
2018-12-14T19:13:25.190Z,29.93
2018-12-14T19:15:59.422Z,28.73
2018-12-14T19:18:24.300Z,31.57
2018-12-14T19:20:52.892Z,30.20
2018-12-14T19:23:21.478Z,34.60
2018-12-14T19:25:50.404Z,31.00
2018-12-14T19:28:19.084Z,33.00
2018-12-14T19:30:47.740Z,33.53
2018-12-14T19:33:17.355Z,34.23
2018-12-14T19:35:46.044Z,29.27
2018-12-14T19:38:15.440Z,32.10
2018-12-14T19:40:45.238Z,31.50
2018-12-14T19:43:13.814Z,34.20
2018-12-14T19:45:42.625Z,35.90
2018-12-14T19:48:11.213Z,36.87
2018-12-14T19:50:39.887Z,33.63
2018-12-14T19:53:09.456Z,39.60
2018-12-14T19:55:38.538Z,32.20
2018-12-14T19:58:07.200Z,33.67
2018-12-14T20:00:36.451Z,32.97
2018-12-14T20:03:05.418Z,36.47
2018-12-14T20:05:33.951Z,35.83
2018-12-14T20:10:34.547Z,36.77
2018-12-14T20:13:03.243Z,33.80
2018-12-14T20:15:31.827Z,39.10
2018-12-14T20:18:01.806Z,37.00
2018-12-14T20:20:30.831Z,36.00
2018-12-14T20:22:59.618Z,36.77
2018-12-14T20:25:28.276Z,36.57
2018-12-14T20:27:56.911Z,41.57
2018-12-14T20:30:28.319Z,34.80
2018-12-14T20:33:03.611Z,39.23
2018-12-14T20:35:32.447Z,34.77
2018-12-14T20:38:01.367Z,34.30
2018-12-14T20:40:30.277Z,36.50
2018-12-14T20:42:58.836Z,35.33
2018-12-14T20:45:27.422Z,31.00
2018-12-14T20:47:56.000Z,32.13
2018-12-14T20:50:24.616Z,28.93
2018-12-14T20:52:53.886Z,36.87
2018-12-14T20:55:23.389Z,31.77
2018-12-14T20:57:52.030Z,34.03
2018-12-14T21:00:21.571Z,35.23
2018-12-14T21:02:54.264Z,30.83
2018-12-14T21:05:22.848Z,30.40
2018-12-14T21:07:51.523Z,29.13
2018-12-14T21:10:20.230Z,30.20
2018-12-14T21:15:22.826Z,25.00
2018-12-14T21:17:52.597Z,18.37
2018-12-14T21:20:21.605Z,21.10
2018-12-14T21:22:50.226Z,19.40
2018-12-14T21:25:18.766Z,20.37
2018-12-14T21:27:47.269Z,23.03
2018-12-14T21:30:15.865Z,23.67
2018-12-14T21:32:44.496Z,20.87
2018-12-14T21:35:13.303Z,21.07
2018-12-14T21:37:42.031Z,22.23
2018-12-14T21:40:11.066Z,22.30
2018-12-14T21:42:39.695Z,25.43
2018-12-14T21:45:09.292Z,20.80
2018-12-14T21:47:37.840Z,22.77
2018-12-14T21:50:07.418Z,21.67
2018-12-14T21:52:35.951Z,22.47
2018-12-14T21:55:05.073Z,21.87
2018-12-14T21:57:33.969Z,20.17
2018-12-14T22:00:02.551Z,18.80
2018-12-14T22:02:31.071Z,20.20
2018-12-14T22:04:59.585Z,21.30
2018-12-14T22:07:28.097Z,20.83
2018-12-14T22:09:56.601Z,21.07
2018-12-14T22:12:25.497Z,19.70
2018-12-14T22:14:54.012Z,19.80
2018-12-14T22:17:22.483Z,18.83
2018-12-14T22:19:50.977Z,19.13
2018-12-14T22:22:19.641Z,21.50
2018-12-14T22:24:49.041Z,20.43
2018-12-14T22:27:17.593Z,23.37
2018-12-14T22:29:47.203Z,21.20
2018-12-14T22:32:16.689Z,23.07
2018-12-14T22:34:45.169Z,23.93
2018-12-14T22:37:13.733Z,21.47
2018-12-14T22:39:42.322Z,27.83
2018-12-14T22:42:11.151Z,26.77
2018-12-14T22:44:39.647Z,21.30
2018-12-14T22:47:08.396Z,22.77
2018-12-14T22:49:36.835Z,27.77
2018-12-14T22:52:05.297Z,25.53
2018-12-14T22:54:33.761Z,28.10
2018-12-14T22:57:02.446Z,34.67
2018-12-14T22:59:30.927Z,31.87
2018-12-14T23:01:59.406Z,26.03
2018-12-14T23:04:27.839Z,35.23
2018-12-14T23:06:56.272Z,40.27
2018-12-14T23:09:24.720Z,24.07
2018-12-14T23:11:53.134Z,29.17
2018-12-14T23:14:21.652Z,33.37
2018-12-14T23:16:52.406Z,26.97
2018-12-14T23:19:20.773Z,29.43
2018-12-14T23:21:49.270Z,24.27
2018-12-14T23:24:17.778Z,29.77
2018-12-14T23:26:46.187Z,32.23
2018-12-14T23:29:14.624Z,25.43
2018-12-14T23:31:43.055Z,25.37
2018-12-14T23:34:11.583Z,23.23
2018-12-14T23:36:40.012Z,27.93
2018-12-14T23:39:08.583Z,21.17
2018-12-14T23:41:37.008Z,20.43
2018-12-14T23:44:05.426Z,20.93
2018-12-14T23:46:33.867Z,19.57
2018-12-14T23:49:02.325Z,25.40
2018-12-14T23:51:30.731Z,20.17
2018-12-14T23:53:59.131Z,23.47
2018-12-14T23:56:27.548Z,22.53
2018-12-14T23:58:55.960Z,20.50
